Time;durP1;ratioP1;P1;durP2;ratioP2;P2;SDS_P1;SDS_P2;PMS_P1;PMS_P2;Temp;Humidity;BMP_temperature;BMP_pressure;BME280_temperature;BME280_humidity;BME280_pressure;Samples;Min_cycle;Max_cycle;Signal;HPM_P1;HPM_P2
2023/10/11 00:01:37;;;;;;;14.20;6.70;;;15.10;95.70;;;;;;21015447;28;20578;-66
2023/10/11 00:11:39;;;;;;;18.07;6.47;;;15.10;95.80;;;;;;21022654;28;20211;-76
2023/10/11 00:21:42;;;;;;;16.70;7.27;;;14.90;95.90;;;;;;21010029;28;20302;-76
2023/10/11 00:31:45;;;;;;;21.77;6.93;;;14.90;96.30;;;;;;21008943;28;20286;-76
2023/10/11 00:41:48;;;;;;;16.80;6.87;;;14.90;96.60;;;;;;21008040;28;20265;-76
2023/10/11 00:51:51;;;;;;;17.00;7.10;;;14.80;96.80;;;;;;21007570;28;20241;-76
2023/10/11 01:01:55;;;;;;;13.90;7.33;;;14.80;96.90;;;;;;21006784;28;20241;-77
2023/10/11 01:11:57;;;;;;;15.53;7.10;;;14.80;97.20;;;;;;21005876;28;20227;-76
2023/10/11 01:21:59;;;;;;;20.77;7.00;;;14.80;97.30;;;;;;21005415;28;20234;-76
2023/10/11 01:32:01;;;;;;;16.07;6.80;;;14.60;97.30;;;;;;21004525;28;20216;-75
2023/10/11 01:42:03;;;;;;;14.20;6.70;;;14.60;97.50;;;;;;21003507;28;20256;-79
2023/10/11 01:52:06;;;;;;;19.70;6.67;;;14.50;97.60;;;;;;21002593;28;20289;-78
2023/10/11 02:02:10;;;;;;;16.53;6.67;;;14.50;97.80;;;;;;21002421;28;20241;-76
2023/10/11 02:12:12;;;;;;;14.83;6.97;;;14.50;98.00;;;;;;21060546;28;20294;-75
2023/10/11 02:22:13;;;;;;;12.23;6.60;;;14.50;98.10;;;;;;21083790;28;20268;-78
2023/10/11 02:32:15;;;;;;;14.37;6.27;;;14.40;98.10;;;;;;21083654;28;20214;-76
2023/10/11 02:42:19;;;;;;;12.67;6.00;;;14.40;98.20;;;;;;21068235;28;20562;-77
2023/10/11 02:52:35;;;;;;;12.53;6.50;;;14.40;98.30;;;;;;21038650;28;20245;-79
2023/10/11 03:02:39;;;;;;;15.77;6.87;;;14.40;98.20;;;;;;21022243;28;20690;-77
2023/10/11 03:12:42;;;;;;;15.30;6.57;;;14.20;98.10;;;;;;20996714;28;20555;-77
2023/10/11 03:22:45;;;;;;;17.07;6.87;;;14.20;98.60;;;;;;21000514;28;20273;-78
2023/10/11 03:32:47;;;;;;;12.33;6.30;;;14.20;98.70;;;;;;21023289;28;20242;-78
2023/10/11 03:42:59;;;;;;;13.20;6.87;;;14.20;98.60;;;;;;21002519;28;20240;-77
2023/10/11 03:53:10;;;;;;;14.53;6.37;;;14.20;98.70;;;;;;21058145;28;20242;-79
2023/10/11 04:03:17;;;;;;;15.50;6.40;;;14.20;98.80;;;;;;21012033;28;20686;-78
2023/10/11 04:13:30;;;;;;;14.97;6.50;;;14.10;98.80;;;;;;21010672;28;20218;-78
2023/10/11 04:23:35;;;;;;;15.23;7.00;;;14.10;98.90;;;;;;21010019;28;20693;-77
2023/10/11 04:33:37;;;;;;;15.57;6.67;;;14.00;98.80;;;;;;21009510;28;20207;-73
2023/10/11 04:43:50;;;;;;;13.10;6.23;;;13.90;98.80;;;;;;21026640;28;20569;-77
2023/10/11 04:53:57;;;;;;;17.37;7.03;;;13.90;99.10;;;;;;21086313;28;20268;-76
2023/10/11 05:03:59;;;;;;;18.73;7.17;;;13.80;99.10;;;;;;21090289;28;20234;-75
2023/10/11 05:14:26;;;;;;;17.37;8.30;;;13.70;98.90;;;;;;21088088;28;20202;-74
2023/10/11 05:35:06;;;;;;;23.87;8.60;;;13.60;99.40;;;;;;21088182;28;20208;-76
2023/10/11 05:55:29;;;;;;;20.60;7.20;;;13.50;99.10;;;;;;21085847;28;20671;-75
2023/10/11 06:05:39;;;;;;;39.53;8.50;;;13.40;99.40;;;;;;21085356;28;20231;-75
2023/10/11 06:15:50;;;;;;;27.03;8.73;;;13.40;99.30;;;;;;21083680;28;20204;-75
2023/10/11 06:25:53;;;;;;;21.87;8.10;;;13.40;99.50;;;;;;21083545;28;20240;-76
2023/10/11 06:35:55;;;;;;;21.93;8.23;;;13.40;99.60;;;;;;21083024;28;20256;-76
2023/10/11 06:46:01;;;;;;;23.67;7.70;;;13.60;99.50;;;;;;21081692;28;20269;-75
2023/10/11 06:56:05;;;;;;;29.73;7.93;;;13.60;99.40;;;;;;21080863;28;20592;-74
2023/10/11 07:06:12;;;;;;;31.77;16.83;;;13.70;99.60;;;;;;21080237;28;21036;-74
2023/10/11 07:16:19;;;;;;;22.73;8.73;;;13.90;99.60;;;;;;21080479;28;20210;-74
2023/10/11 07:26:23;;;;;;;21.57;8.37;;;14.10;99.80;;;;;;21079116;28;20597;-75
2023/10/11 07:36:25;;;;;;;23.57;8.73;;;14.40;99.80;;;;;;21078678;28;20206;-75
2023/10/11 07:46:30;;;;;;;24.57;9.63;;;14.70;99.60;;;;;;21061269;28;20231;-75
2023/10/11 07:56:38;;;;;;;24.93;9.63;;;15.10;99.60;;;;;;21077729;28;20231;-73
2023/10/11 08:06:41;;;;;;;31.27;10.10;;;15.50;99.40;;;;;;21076904;28;20316;-72
2023/10/11 08:16:47;;;;;;;32.40;9.77;;;15.90;99.10;;;;;;21048502;28;20209;-73
2023/10/11 08:26:52;;;;;;;24.10;9.63;;;16.20;99.00;;;;;;21026571;28;20264;-72
2023/10/11 08:36:57;;;;;;;22.20;8.97;;;16.60;98.90;;;;;;21039200;28;20741;-74
2023/10/11 08:47:04;;;;;;;17.57;5.00;;;17.00;98.60;;;;;;21091748;28;20235;-76
2023/10/11 08:57:07;;;;;;;20.77;6.00;;;17.40;98.10;;;;;;21090442;28;20328;-77
2023/10/11 09:07:13;;;;;;;11.57;5.00;;;18.00;96.90;;;;;;21068260;28;20282;-74
2023/10/11 09:17:19;;;;;;;12.27;5.00;;;18.50;95.20;;;;;;21056036;28;20211;-73
2023/10/11 09:27:23;;;;;;;13.60;5.00;;;19.00;93.40;;;;;;21043733;28;20238;-76
2023/10/11 09:37:25;;;;;;;18.27;4.53;;;19.40;92.40;;;;;;21003686;28;20290;-75
2023/10/11 09:47:34;;;;;;;10.93;4.83;;;19.70;91.20;;;;;;21002095;28;20238;-75
2023/10/11 09:57:50;;;;;;;16.93;6.47;;;20.00;90.50;;;;;;21001836;28;20762;-75
2023/10/11 10:07:52;;;;;;;9.30;4.67;;;20.40;87.90;;;;;;21001002;28;20231;-74
2023/10/11 10:17:57;;;;;;;12.97;4.90;;;20.80;85.10;;;;;;21000603;28;20211;-75
2023/10/11 10:27:59;;;;;;;15.30;4.80;;;21.00;82.90;;;;;;20999583;28;20280;-76
2023/10/11 10:38:03;;;;;;;18.10;4.63;;;21.40;81.10;;;;;;20998276;28;20217;-75
2023/10/11 10:48:20;;;;;;;11.90;3.90;;;21.60;80.20;;;;;;20998000;28;20239;-74
2023/10/11 10:58:22;;;;;;;21.30;4.50;;;21.80;79.30;;;;;;20996906;28;20235;-75
2023/10/11 11:08:27;;;;;;;13.30;5.20;;;22.00;77.80;;;;;;20996469;28;20610;-73
2023/10/11 11:18:33;;;;;;;12.90;5.37;;;22.30;76.10;;;;;;20996343;28;20285;-72
2023/10/11 11:28:44;;;;;;;15.37;4.30;;;22.60;73.60;;;;;;20996185;28;20227;-76
2023/10/11 11:38:46;;;;;;;15.13;4.00;;;22.80;71.80;;;;;;20995871;28;20213;-75
2023/10/11 11:48:50;;;;;;;19.50;4.20;;;23.00;70.60;;;;;;20995036;28;20231;-70
2023/10/11 11:59:00;;;;;;;18.30;3.90;;;23.30;69.30;;;;;;21006053;28;20236;-75
2023/10/11 12:09:04;;;;;;;13.30;4.00;;;23.50;68.20;;;;;;21113887;28;20759;-73
2023/10/11 12:19:11;;;;;;;12.50;4.80;;;23.70;66.40;;;;;;21143586;28;20268;-71
2023/10/11 12:29:14;;;;;;;10.13;4.70;;;23.80;65.60;;;;;;21079530;28;20292;-67
2023/10/11 12:39:24;;;;;;;17.67;4.50;;;24.00;65.30;;;;;;21144928;28;20212;-67
2023/10/11 12:49:27;;;;;;;14.27;3.47;;;24.10;64.30;;;;;;21173903;28;20241;-68
2023/10/11 12:59:29;;;;;;;17.47;4.50;;;24.10;64.10;;;;;;21174741;28;20259;-68
2023/10/11 13:09:35;;;;;;;17.37;4.97;;;24.20;64.30;;;;;;21101613;28;20746;-68
2023/10/11 13:19:37;;;;;;;14.67;3.87;;;24.30;64.30;;;;;;21089011;28;20209;-65
2023/10/11 13:29:39;;;;;;;10.47;4.20;;;24.40;63.60;;;;;;21087877;28;20242;-67
2023/10/11 13:39:46;;;;;;;14.13;4.20;;;24.70;63.50;;;;;;21087330;28;20225;-64
2023/10/11 13:49:49;;;;;;;16.13;4.03;;;24.80;62.80;;;;;;21086716;28;20728;-69
2023/10/11 13:59:53;;;;;;;13.27;3.95;;;25.20;61.80;;;;;;21015272;28;20570;-74
2023/10/11 14:09:57;;;;;;;11.48;3.85;;;;;;;;;;21043238;28;20235;-72
2023/10/11 14:20:00;;;;;;;19.92;4.00;;;25.60;60.30;;;;;;21030270;28;20248;-71
2023/10/11 14:30:01;;;;;;;11.80;3.88;;;27.30;56.20;;;;;;20999172;28;20281;-71
2023/10/11 14:40:14;;;;;;;14.93;3.70;;;27.60;54.40;;;;;;20998836;28;20562;-70
2023/10/11 14:50:22;;;;;;;14.00;4.03;;;27.10;54.70;;;;;;20997681;28;20235;-74
2023/10/11 15:00:25;;;;;;;14.20;4.30;;;26.50;54.40;;;;;;21009234;28;20199;-69
2023/10/11 15:10:27;;;;;;;14.82;4.22;;;26.50;54.70;;;;;;21051533;28;20587;-70
2023/10/11 15:20:31;;;;;;;15.80;4.00;;;;;;;;;;21164946;28;20206;-74
2023/10/11 15:30:40;;;;;;;14.85;4.40;;;25.90;55.90;;;;;;21164215;28;20278;-69
2023/10/11 15:40:42;;;;;;;16.50;4.17;;;25.10;58.20;;;;;;21145093;28;20209;-67
2023/10/11 15:50:44;;;;;;;15.60;4.40;;;24.70;58.30;;;;;;21161008;28;20336;-67
2023/10/11 16:00:46;;;;;;;15.67;4.27;;;24.50;59.60;;;;;;21162645;28;20206;-68
2023/10/11 16:10:58;;;;;;;16.00;4.53;;;24.20;60.20;;;;;;21122850;28;20659;-73
2023/10/11 16:21:01;;;;;;;27.33;4.57;;;23.90;61.10;;;;;;21077258;28;20692;-70
2023/10/11 16:31:05;;;;;;;13.83;3.87;;;23.60;62.00;;;;;;21077388;28;20739;-71
2023/10/11 16:41:08;;;;;;;19.23;4.27;;;23.40;62.90;;;;;;21076849;28;20203;-70
2023/10/11 16:51:11;;;;;;;19.83;4.57;;;23.20;63.80;;;;;;21076232;28;20292;-69
2023/10/11 17:01:14;;;;;;;12.47;4.57;;;23.00;64.60;;;;;;21090304;28;20544;-68
2023/10/11 17:11:16;;;;;;;13.80;4.00;;;22.70;65.40;;;;;;21131061;28;20221;-69
2023/10/11 17:21:18;;;;;;;15.80;4.30;;;22.50;66.00;;;;;;21172342;28;20213;-69
2023/10/11 17:31:20;;;;;;;22.63;4.40;;;22.30;66.60;;;;;;21155143;28;20240;-69
2023/10/11 17:41:21;;;;;;;15.20;3.80;;;22.20;66.90;;;;;;21172075;28;20301;-69
2023/10/11 17:51:27;;;;;;;12.97;4.60;;;22.10;67.20;;;;;;21171223;28;20316;-68
2023/10/11 18:01:29;;;;;;;12.13;3.53;;;22.00;67.60;;;;;;21170588;28;20217;-65
2023/10/11 18:11:31;;;;;;;17.93;4.37;;;21.90;67.70;;;;;;21167948;28;20209;-71
2023/10/11 18:21:33;;;;;;;12.57;4.40;;;21.80;68.10;;;;;;21166407;28;20202;-71
2023/10/11 18:31:37;;;;;;;10.17;4.33;;;21.70;68.40;;;;;;21129695;28;20206;-69
2023/10/11 18:41:40;;;;;;;15.97;6.10;;;21.70;68.60;;;;;;21082580;28;20209;-69
2023/10/11 18:51:43;;;;;;;19.20;4.40;;;21.60;68.70;;;;;;21081936;28;20230;-69
2023/10/11 19:01:47;;;;;;;16.63;5.70;;;21.50;68.80;;;;;;21101436;28;20287;-69
2023/10/11 19:11:48;;;;;;;18.77;4.53;;;21.40;69.10;;;;;;21129160;28;20230;-70
2023/10/11 19:21:50;;;;;;;19.93;4.43;;;21.40;69.30;;;;;;21105746;28;20226;-69
2023/10/11 19:31:52;;;;;;;14.87;7.67;;;21.30;69.20;;;;;;21079819;28;20202;-69
2023/10/11 19:41:54;;;;;;;17.10;4.50;;;21.30;69.40;;;;;;21162755;28;20316;-69
2023/10/11 19:51:56;;;;;;;18.03;4.93;;;21.10;69.80;;;;;;21162574;28;20261;-69
2023/10/11 20:01:58;;;;;;;11.87;4.60;;;20.80;70.80;;;;;;21162762;28;20230;-69
2023/10/11 20:12:00;;;;;;;17.93;5.87;;;20.50;72.10;;;;;;21112680;28;20210;-69
2023/10/11 20:22:02;;;;;;;13.07;4.77;;;20.20;73.10;;;;;;21076626;28;20237;-68
2023/10/11 20:32:03;;;;;;;16.17;5.33;;;20.00;74.20;;;;;;21085854;28;20271;-67
2023/10/11 20:42:07;;;;;;;12.90;5.00;;;19.80;75.40;;;;;;21092900;28;20248;-68
2023/10/11 20:52:09;;;;;;;20.90;5.53;;;19.60;76.40;;;;;;21092336;28;20234;-67
2023/10/11 21:02:11;;;;;;;14.03;5.80;;;19.40;77.40;;;;;;21091670;28;20637;-67
2023/10/11 21:12:13;;;;;;;18.17;5.40;;;19.30;78.30;;;;;;21139988;28;20228;-67
2023/10/11 21:22:14;;;;;;;12.80;5.40;;;19.10;79.10;;;;;;21173835;28;20598;-67
2023/10/11 21:32:16;;;;;;;16.87;5.60;;;18.90;80.00;;;;;;21171877;28;20209;-68
2023/10/11 21:42:18;;;;;;;13.17;5.43;;;18.80;80.90;;;;;;21172208;28;20226;-68
2023/10/11 21:52:19;;;;;;;21.70;5.50;;;18.70;81.80;;;;;;21171314;28;20261;-68
2023/10/11 22:02:28;;;;;;;21.17;5.40;;;18.60;82.50;;;;;;21171098;28;20325;-67
2023/10/11 22:12:32;;;;;;;15.63;5.33;;;18.40;83.00;;;;;;21151886;28;20202;-68
2023/10/11 22:22:33;;;;;;;12.17;4.67;;;18.40;83.80;;;;;;21168987;28;20237;-68
2023/10/11 22:32:35;;;;;;;11.20;4.77;;;18.40;84.10;;;;;;21168828;28;20215;-68
2023/10/11 22:42:37;;;;;;;11.23;4.87;;;18.30;84.30;;;;;;21167402;28;20244;-68
2023/10/11 22:52:39;;;;;;;8.13;4.30;;;18.30;84.80;;;;;;21165992;28;20237;-68
2023/10/11 23:02:41;;;;;;;15.60;5.23;;;18.30;85.20;;;;;;21166367;28;20233;-68
2023/10/11 23:12:46;;;;;;;14.13;5.20;;;18.30;85.50;;;;;;21165265;28;20744;-68
2023/10/11 23:22:48;;;;;;;12.63;5.13;;;18.30;85.90;;;;;;21164578;28;20669;-68
2023/10/11 23:33:07;;;;;;;14.50;5.60;;;18.30;86.60;;;;;;21164366;28;20213;-68
2023/10/11 23:43:09;;;;;;;12.83;5.23;;;18.20;87.60;;;;;;21163380;28;20233;-68
2023/10/11 23:53:19;;;;;;;13.33;5.33;;;18.00;88.90;;;;;;21162835;28;20236;-67
